Tiffin, OH (44883)

8:02 PM EDT on September 04, 2015 (GMT -0400)
CR 38 West of OH 53 | | Change Station
CLOSE
Current Station
Personal Weather Station
Location: Tiffin, OH
Elevation: 728 ft
Nearby Weather Stations

Elev 728 ft 41.17 °N, 83.18 °W | Updated 22 seconds ago

Clear
Clear
71.4 °F
Feels Like 71.4 °F
N
0.0
Wind Variable Wind from SW
Gusts 0.0 mph

Today
High -- | Low -- °F
--% Chance of Precip.
Yesterday
High -- | Low -- °F
Precip. -- in
7:02 AM 8:00 PM
Waning Gibbous, 54% visible
Pressure 30.02 in
Visibility 10.0 miles
Clouds Clear
Dew Point 68 °F
Humidity 89%
Rainfall 0.17 in
Snow Depth Not available.
UV 0 out of 12
Pollen 8.90 out of 12
Air Quality Not available.
Flu Activity Not available.
METAR KFDY 042353Z AUTO 22005KT 10SM CLR 21/18 A3004 RMK AO2 RAE09 SLP165 P0000 60000 T02110183 10311 20211 58002
Pressure 30.02 in
Visibility 10.0 miles
Clouds Clear
Dew Point 68 °F
Humidity 89%
Rainfall 0.17 in
Snow Depth Not available.
UV 0 out of 12
Pollen 8.90 out of 12
Air Quality Not available.
Flu Activity Not available.
METAR KFDY 042353Z AUTO 22005KT 10SM CLR 21/18 A3004 RMK AO2 RAE09 SLP165 P0000 60000 T02110183 10311 20211 58002

10-Day Weather Forecast

×

Almanac

Astronomy

Sep. 04, 2015 Rise Set
Actual Time
Civil Twilight
Nautical Twilight
Astronomical Twilight
Moon
Length of Visible Light
Length of Day
Tomorrow will be .
, % of the Moon is Illuminated

Today's Extremes

State Highs State Lows

Community

WunderPhotos

Upload Photos

1,852,345 photos uploaded!

WunderBlogs® & News

Nearby

Air Quality

  Air Quality AQ Index Pollutant
Not available.

Snow Depth

Station Depth Elevation

Earthquake Activity

City Distance Mag. Time & Date
Minimum magnitude displayed is 2.5.

Coastal Water Temperatures

Place Temperature

Stations

Nearby Weather Stations

Station Location Temp. Windchill Dew Point Humidity Wind Precip. Elev Updated Type